createdAt,value
2019-04-22T00:00:30.767Z,98.5
2019-04-22T00:01:31.183Z,99.3
2019-04-22T00:02:29.926Z,98.5
2019-04-22T00:03:37.735Z,98.3
2019-04-22T00:04:43.281Z,99.0
2019-04-22T00:05:52.782Z,98.0
2019-04-22T00:06:57.532Z,98.5
2019-04-22T00:07:58.120Z,98.5
2019-04-22T00:08:55.977Z,98.3
2019-04-22T00:09:59.575Z,98.2
2019-04-22T00:11:06.358Z,98.3
2019-04-22T00:12:06.339Z,97.8
2019-04-22T00:13:00.067Z,98.5
2019-04-22T00:14:01.263Z,97.7
2019-04-22T00:14:59.960Z,98.6
2019-04-22T00:15:59.292Z,98.0
2019-04-22T00:17:07.078Z,98.5
2019-04-22T00:18:16.547Z,98.0
2019-04-22T00:19:15.115Z,98.7
2019-04-22T00:20:08.553Z,98.0
2019-04-22T00:21:12.750Z,98.4
2019-04-22T00:22:15.333Z,98.3
2019-04-22T00:23:15.645Z,98.4
2019-04-22T00:24:10.728Z,98.0
2019-04-22T00:26:20.665Z,97.9
2019-04-22T00:27:20.621Z,99.6
2019-04-22T00:28:24.868Z,98.4
2019-04-22T00:30:40.636Z,97.9
2019-04-22T00:31:21.196Z,98.2
2019-04-22T00:32:20.301Z,98.5
2019-04-22T00:33:23.882Z,98.5
2019-04-22T00:34:22.834Z,98.0
2019-04-22T00:35:23.728Z,97.8
2019-04-22T00:36:24.124Z,98.0
2019-04-22T00:37:29.952Z,98.8
2019-04-22T00:38:31.518Z,98.2
2019-04-22T00:39:44.707Z,98.0
2019-04-22T00:40:34.126Z,97.5
2019-04-22T00:41:35.814Z,98.5
2019-04-22T00:42:39.178Z,97.7
2019-04-22T00:43:35.960Z,98.1
2019-04-22T00:44:41.543Z,98.4
2019-04-22T00:45:38.984Z,98.4
2019-04-22T00:46:39.937Z,98.3
2019-04-22T00:47:37.968Z,98.6
2019-04-22T00:48:48.897Z,97.7
2019-04-22T00:50:46.732Z,98.0
2019-04-22T00:51:52.018Z,98.6
2019-04-22T00:52:47.559Z,98.5
2019-04-22T00:53:51.257Z,97.8
2019-04-22T00:54:54.184Z,97.4
2019-04-22T00:55:55.554Z,97.2
2019-04-22T00:56:48.186Z,97.9
2019-04-22T00:57:54.666Z,97.8
2019-04-22T00:59:08.458Z,98.3
2019-04-22T00:59:58.596Z,98.8
2019-04-22T01:00:54.270Z,98.1
2019-04-22T01:02:02.006Z,98.0
2019-04-22T01:03:07.488Z,98.7
2019-04-22T01:04:03.980Z,98.5
2019-04-22T01:05:00.808Z,97.2
2019-04-22T01:06:03.436Z,97.2
2019-04-22T01:06:57.514Z,97.7
2019-04-22T01:08:11.492Z,98.7
2019-04-22T01:09:04.368Z,98.1
2019-04-22T01:10:06.927Z,97.7
2019-04-22T01:11:13.568Z,98.1
2019-04-22T01:12:07.014Z,98.6
2019-04-22T01:13:04.421Z,98.2
2019-04-22T01:14:06.463Z,98.6
2019-04-22T01:15:07.290Z,97.7
2019-04-22T01:16:13.995Z,97.8
2019-04-22T01:17:08.907Z,97.2
2019-04-22T01:18:09.323Z,98.1
2019-04-22T01:19:15.079Z,97.5
2019-04-22T01:20:41.091Z,97.4
2019-04-22T01:22:19.086Z,97.9
2019-04-22T01:23:19.549Z,97.9
2019-04-22T01:24:15.704Z,98.1
2019-04-22T01:25:14.364Z,98.1
2019-04-22T01:26:09.956Z,98.1
2019-04-22T01:27:13.236Z,97.6
2019-04-22T01:28:10.960Z,98.0
2019-04-22T01:29:10.956Z,98.1
2019-04-22T01:30:10.668Z,98.2
2019-04-22T01:31:04.982Z,97.4
2019-04-22T01:32:00.403Z,97.7
2019-04-22T01:33:09.139Z,98.1
2019-04-22T01:34:16.092Z,97.4
2019-04-22T01:35:13.122Z,98.2
2019-04-22T01:36:25.463Z,98.1
2019-04-22T01:37:23.982Z,98.5
2019-04-22T01:38:18.896Z,98.6
2019-04-22T01:39:30.391Z,98.2
2019-04-22T01:40:33.459Z,98.2
2019-04-22T01:41:42.061Z,97.9
2019-04-22T01:42:35.738Z,98.3
2019-04-22T01:43:50.283Z,98.3
2019-04-22T01:44:40.823Z,97.9
2019-04-22T01:45:52.990Z,98.0
2019-04-22T01:46:36.920Z,97.8
2019-04-22T01:48:39.340Z,98.4
2019-04-22T01:49:41.745Z,98.2
2019-04-22T01:50:37.268Z,98.1
2019-04-22T01:51:51.909Z,97.3
2019-04-22T01:52:47.222Z,96.6
2019-04-22T01:53:50.450Z,98.3
2019-04-22T01:55:04.422Z,97.9
2019-04-22T01:55:55.428Z,97.4
2019-04-22T01:57:47.647Z,97.6
2019-04-22T01:58:48.255Z,97.2
2019-04-22T01:59:46.021Z,96.8
2019-04-22T02:00:53.689Z,97.4
2019-04-22T02:01:55.225Z,98.6
2019-04-22T02:02:57.488Z,98.2
2019-04-22T02:04:01.332Z,97.5
2019-04-22T02:05:00.995Z,97.9
2019-04-22T02:05:58.819Z,97.6
2019-04-22T02:07:01.828Z,98.1
2019-04-22T02:08:06.743Z,98.7
2019-04-22T02:09:09.481Z,97.8
2019-04-22T02:10:05.551Z,98.1
2019-04-22T02:11:08.154Z,97.8
2019-04-22T02:12:05.989Z,97.1
2019-04-22T02:13:06.915Z,97.5
2019-04-22T02:14:17.487Z,96.7
2019-04-22T02:15:12.307Z,97.4
2019-04-22T02:16:16.195Z,97.9
2019-04-22T02:17:33.184Z,97.6
2019-04-22T02:18:17.819Z,96.5
2019-04-22T02:19:19.033Z,96.8
2019-04-22T02:20:31.538Z,96.8
2019-04-22T02:21:16.733Z,96.8
2019-04-22T02:22:29.153Z,96.9
2019-04-22T02:23:43.954Z,97.3
2019-04-22T02:24:30.133Z,96.6
2019-04-22T02:25:27.180Z,97.3
2019-04-22T02:26:26.027Z,97.6
2019-04-22T02:27:27.421Z,97.6
2019-04-22T02:28:33.749Z,97.6
2019-04-22T02:29:29.947Z,97.6
2019-04-22T02:30:36.372Z,96.9
2019-04-22T02:31:37.653Z,97.5
2019-04-22T02:32:48.641Z,97.5
2019-04-22T02:34:07.912Z,97.8
2019-04-22T02:34:40.321Z,96.9
2019-04-22T02:37:54.958Z,97.7
2019-04-22T02:38:59.424Z,96.7
2019-04-22T02:39:42.803Z,97.6
2019-04-22T02:41:06.738Z,97.3
2019-04-22T02:42:09.502Z,96.7
2019-04-22T02:42:52.270Z,97.6
2019-04-22T02:44:10.196Z,97.5
2019-04-22T02:45:04.623Z,96.7
2019-04-22T02:46:22.458Z,96.8
2019-04-22T02:48:06.710Z,96.7
2019-04-22T02:49:13.167Z,96.4
2019-04-22T02:50:01.815Z,97.6
2019-04-22T02:51:12.401Z,97.4
2019-04-22T02:52:06.858Z,97.3
2019-04-22T02:53:02.972Z,96.7
2019-04-22T02:55:11.616Z,97.4
2019-04-22T02:58:14.457Z,96.8
2019-04-22T02:58:27.779Z,97.2
2019-04-22T03:01:24.807Z,96.5
2019-04-22T03:05:27.962Z,96.5
2019-04-22T03:07:29.336Z,96.8
2019-04-22T03:08:31.268Z,97.2
2019-04-22T03:09:31.699Z,97.0
2019-04-22T03:10:37.171Z,97.4
2019-04-22T03:11:35.852Z,97.1
2019-04-22T03:12:41.319Z,97.4
2019-04-22T03:13:47.187Z,96.6
2019-04-22T03:14:38.066Z,96.4
2019-04-22T03:15:42.577Z,96.7
2019-04-22T03:16:41.071Z,96.4
2019-04-22T03:17:41.423Z,97.2
2019-04-22T03:18:53.383Z,96.6
2019-04-22T03:20:02.598Z,96.2
2019-04-22T03:20:50.147Z,97.5
2019-04-22T03:22:52.920Z,96.5
2019-04-22T03:23:56.298Z,96.9
2019-04-22T03:25:12.432Z,96.2
2019-04-22T03:27:48.355Z,96.3
2019-04-22T03:30:22.150Z,96.6
2019-04-22T03:32:36.113Z,97.2
2019-04-22T03:36:21.508Z,96.6
2019-04-22T03:38:37.524Z,97.3
2019-04-22T03:39:29.943Z,97.5
2019-04-22T03:43:23.806Z,97.5
2019-04-22T03:44:33.866Z,97.3
2019-04-22T03:45:26.443Z,97.5
2019-04-22T03:46:21.479Z,97.5
2019-04-22T03:47:26.073Z,96.7
2019-04-22T03:48:55.067Z,96.4
2019-04-22T03:49:52.103Z,97.4
2019-04-22T03:50:24.890Z,97.4
2019-04-22T03:52:32.202Z,97.0
2019-04-22T03:53:56.560Z,97.3
2019-04-22T03:54:42.997Z,96.5
2019-04-22T03:57:48.878Z,96.4
2019-04-22T03:58:37.268Z,96.6
2019-04-22T04:00:47.908Z,97.1
2019-04-22T04:01:56.056Z,97.2
2019-04-22T04:02:52.348Z,96.9
2019-04-22T04:03:51.673Z,97.1
2019-04-22T04:04:47.436Z,97.7
2019-04-22T04:07:01.455Z,97.0
2019-04-22T04:08:55.400Z,96.6
2019-04-22T04:09:58.257Z,97.5
2019-04-22T04:11:19.930Z,96.5
2019-04-22T04:12:00.004Z,97.3
2019-04-22T04:13:03.509Z,97.5
2019-04-22T04:14:12.398Z,97.3
2019-04-22T04:15:14.034Z,97.2
2019-04-22T04:15:55.615Z,97.3
2019-04-22T04:17:09.319Z,97.1
2019-04-22T04:17:59.473Z,97.0
2019-04-22T04:20:24.277Z,96.5
2019-04-22T04:21:20.578Z,96.8
2019-04-22T04:22:26.405Z,97.2
2019-04-22T04:23:21.907Z,97.3
2019-04-22T04:25:27.148Z,97.4
2019-04-22T04:26:27.110Z,96.6
2019-04-22T04:29:36.169Z,97.2
2019-04-22T04:31:33.306Z,97.1
2019-04-22T04:33:36.052Z,96.6
2019-04-22T04:34:54.037Z,96.9
2019-04-22T04:36:42.537Z,97.5
2019-04-22T04:37:52.793Z,97.3
2019-04-22T04:38:46.514Z,97.0
2019-04-22T04:39:51.068Z,97.5
2019-04-22T04:49:00.496Z,96.5
2019-04-22T04:49:57.355Z,96.1
2019-04-22T04:51:11.185Z,97.2
2019-04-22T04:52:03.944Z,96.3
2019-04-22T04:54:08.578Z,97.1
2019-04-22T04:55:10.024Z,96.4
2019-04-22T04:56:02.766Z,97.7
2019-04-22T04:56:57.045Z,96.3
2019-04-22T04:58:21.336Z,96.0
2019-04-22T04:59:29.988Z,97.8
2019-04-22T05:00:32.030Z,97.4
2019-04-22T05:01:10.933Z,96.5
2019-04-22T05:02:09.583Z,95.3
2019-04-22T05:03:10.692Z,96.0
2019-04-22T05:04:23.573Z,97.3
2019-04-22T05:05:21.085Z,97.5
2019-04-22T05:06:21.536Z,97.0
2019-04-22T05:07:18.662Z,96.2
2019-04-22T05:08:53.834Z,97.1
2019-04-22T05:09:26.140Z,97.0
2019-04-22T05:11:24.902Z,97.4
2019-04-22T05:12:34.608Z,96.9
2019-04-22T05:13:26.182Z,97.6
2019-04-22T05:15:24.907Z,97.8
2019-04-22T05:17:43.916Z,97.6
2019-04-22T05:18:37.397Z,97.5
2019-04-22T05:19:31.977Z,97.8
2019-04-22T05:20:44.891Z,97.9
2019-04-22T05:22:38.059Z,98.3
2019-04-22T05:23:37.503Z,97.7
2019-04-22T05:24:38.101Z,98.7
2019-04-22T05:25:32.125Z,97.7
2019-04-22T05:26:39.994Z,97.5
2019-04-22T05:28:40.140Z,98.3
2019-04-22T05:31:46.005Z,98.2
2019-04-22T05:32:43.019Z,97.6
2019-04-22T05:33:42.816Z,99.2
2019-04-22T05:34:48.581Z,98.9
2019-04-22T05:35:46.501Z,98.3
2019-04-22T05:36:48.153Z,98.2
2019-04-22T05:37:50.365Z,98.5
2019-04-22T05:38:53.679Z,98.8
2019-04-22T05:39:52.694Z,98.5
2019-04-22T05:40:50.907Z,98.4
2019-04-22T05:41:56.076Z,98.2
2019-04-22T05:42:56.371Z,98.7
2019-04-22T05:44:00.409Z,98.4
2019-04-22T05:44:56.196Z,97.9
2019-04-22T05:45:59.191Z,99.9
2019-04-22T05:46:53.285Z,98.6
2019-04-22T05:47:57.518Z,98.2
2019-04-22T05:49:03.174Z,98.9
2019-04-22T05:49:54.626Z,98.3
2019-04-22T05:51:01.110Z,98.4
2019-04-22T05:52:03.166Z,98.6
2019-04-22T05:53:00.405Z,98.7
2019-04-22T05:54:09.086Z,98.6
2019-04-22T05:55:08.696Z,98.7
2019-04-22T05:56:15.504Z,98.1
2019-04-22T05:57:12.997Z,99.1
2019-04-22T05:58:10.766Z,99.0
2019-04-22T05:59:13.996Z,98.4
2019-04-22T06:00:17.999Z,98.0
2019-04-22T06:02:24.129Z,98.0
2019-04-22T06:03:16.820Z,98.3
2019-04-22T06:04:19.843Z,98.6
2019-04-22T06:05:19.686Z,98.6
2019-04-22T06:06:20.698Z,98.2
2019-04-22T06:07:25.333Z,98.3
2019-04-22T06:08:29.276Z,98.2
2019-04-22T06:09:24.795Z,98.0
2019-04-22T06:10:26.319Z,98.2
2019-04-22T06:11:33.985Z,98.0
2019-04-22T06:12:20.914Z,98.8
2019-04-22T06:13:26.776Z,98.2
2019-04-22T06:14:24.885Z,97.8
2019-04-22T06:15:33.089Z,97.0
2019-04-22T06:16:30.848Z,97.7
2019-04-22T06:17:43.114Z,97.8
2019-04-22T06:18:33.470Z,97.4
2019-04-22T06:19:31.814Z,96.7
2019-04-22T06:20:43.417Z,97.4
2019-04-22T06:21:38.438Z,97.1
2019-04-22T06:22:43.216Z,98.1
2019-04-22T06:23:40.468Z,97.2
2019-04-22T06:24:42.111Z,97.1
2019-04-22T06:26:53.192Z,97.0
2019-04-22T06:27:48.319Z,97.6
2019-04-22T06:29:06.679Z,97.5
2019-04-22T06:29:45.823Z,97.4
2019-04-22T06:32:15.288Z,97.3
2019-04-22T06:32:53.906Z,96.7
2019-04-22T06:33:57.960Z,96.7
2019-04-22T06:35:07.993Z,96.5
2019-04-22T06:35:56.342Z,95.7
2019-04-22T06:37:04.083Z,95.3
2019-04-22T06:38:19.124Z,95.1
2019-04-22T06:38:59.061Z,94.6
2019-04-22T06:39:58.752Z,95.6
2019-04-22T06:42:07.837Z,93.1
2019-04-22T06:44:16.235Z,95.8
2019-04-22T06:45:10.776Z,95.3
2019-04-22T06:46:17.279Z,94.4
2019-04-22T06:47:25.091Z,93.1
2019-04-22T06:49:17.379Z,94.2
2019-04-22T06:50:16.625Z,92.3
2019-04-22T06:51:20.854Z,92.0
2019-04-22T06:52:19.680Z,88.5
2019-04-22T06:53:22.223Z,86.1
2019-04-22T06:54:21.614Z,85.9
2019-04-22T06:55:21.138Z,86.7
2019-04-22T06:56:35.572Z,89.4
2019-04-22T06:57:19.423Z,84.5
2019-04-22T06:58:25.350Z,79.9
2019-04-22T06:59:26.489Z,77.5
2019-04-22T07:00:24.535Z,75.9
2019-04-22T07:02:32.150Z,77.5
2019-04-22T07:04:28.216Z,77.8
2019-04-22T07:05:32.816Z,73.7
2019-04-22T07:06:35.753Z,73.7
2019-04-22T07:07:31.490Z,70.3
2019-04-22T07:09:06.674Z,70.5
2019-04-22T07:10:42.087Z,73.1
2019-04-22T07:11:36.035Z,71.1
2019-04-22T07:12:41.505Z,68.7
2019-04-22T07:13:43.267Z,68.0
2019-04-22T07:14:43.230Z,68.9
2019-04-22T07:16:49.798Z,67.2
2019-04-22T07:17:50.761Z,68.2
2019-04-22T07:18:48.226Z,68.9
2019-04-22T07:20:04.282Z,67.6
2019-04-22T07:20:51.106Z,65.6
2019-04-22T07:21:50.336Z,65.2
2019-04-22T07:22:51.259Z,65.4
2019-04-22T07:25:10.385Z,63.4
2019-04-22T07:26:00.250Z,62.6
2019-04-22T07:27:00.236Z,62.4
2019-04-22T07:27:58.223Z,61.1
2019-04-22T07:29:01.490Z,61.6
2019-04-22T07:30:09.327Z,62.6
2019-04-22T07:31:05.649Z,62.8
2019-04-22T07:32:07.726Z,62.8
2019-04-22T07:34:14.587Z,63.3
2019-04-22T07:35:12.927Z,62.6
2019-04-22T07:36:30.884Z,62.5
2019-04-22T07:37:23.102Z,62.8
2019-04-22T07:38:18.646Z,63.2
2019-04-22T07:39:15.681Z,62.6
2019-04-22T07:40:17.090Z,61.6
2019-04-22T07:41:17.262Z,60.0
2019-04-22T07:42:20.344Z,59.5
2019-04-22T07:43:19.590Z,59.6
2019-04-22T07:44:20.362Z,58.7
2019-04-22T07:45:15.528Z,58.4
2019-04-22T07:46:19.764Z,58.3
2019-04-22T07:47:25.709Z,60.4
2019-04-22T07:49:26.667Z,58.6
2019-04-22T07:50:39.290Z,56.8
2019-04-22T07:51:28.264Z,56.6
2019-04-22T07:52:27.775Z,56.3
2019-04-22T07:53:31.758Z,56.5
2019-04-22T07:54:31.657Z,56.0
2019-04-22T07:55:32.599Z,56.5
2019-04-22T07:56:29.329Z,54.7
2019-04-22T07:57:32.515Z,54.2
2019-04-22T07:58:38.815Z,54.3
2019-04-22T07:59:35.108Z,53.5
2019-04-22T08:01:39.803Z,52.3
2019-04-22T08:02:44.197Z,52.2
2019-04-22T08:03:51.643Z,52.4
2019-04-22T08:04:57.961Z,52.2
2019-04-22T08:05:51.603Z,52.2
2019-04-22T08:07:50.555Z,50.9
2019-04-22T08:08:56.618Z,50.6
2019-04-22T08:10:00.277Z,50.9
2019-04-22T08:11:57.172Z,50.3
2019-04-22T08:13:11.670Z,50.3
2019-04-22T08:13:55.248Z,50.3
2019-04-22T08:15:00.117Z,50.3
2019-04-22T08:15:58.758Z,49.7
2019-04-22T08:17:18.864Z,49.3
2019-04-22T08:18:07.004Z,49.1
2019-04-22T08:19:10.555Z,49.3
2019-04-22T08:20:10.749Z,49.3
2019-04-22T08:21:06.382Z,48.6
2019-04-22T08:22:24.104Z,48.8
2019-04-22T08:23:09.232Z,48.9
2019-04-22T08:24:13.093Z,49.0
2019-04-22T08:25:05.477Z,48.8
2019-04-22T08:26:13.011Z,48.3
2019-04-22T08:27:11.588Z,48.0
2019-04-22T08:28:24.039Z,48.1
2019-04-22T08:29:20.301Z,47.5
2019-04-22T08:30:21.991Z,48.2
2019-04-22T08:31:20.339Z,47.5
2019-04-22T08:32:22.429Z,47.5
2019-04-22T08:33:21.701Z,47.9
2019-04-22T08:34:22.621Z,47.6
2019-04-22T08:35:29.360Z,47.9
2019-04-22T08:36:25.611Z,47.6
2019-04-22T08:38:50.764Z,47.1
2019-04-22T08:39:42.000Z,47.7
2019-04-22T08:40:36.146Z,46.7
2019-04-22T08:41:33.414Z,46.8
2019-04-22T08:42:43.467Z,46.5
2019-04-22T08:43:48.265Z,46.1
2019-04-22T08:44:56.777Z,46.1
2019-04-22T08:45:46.068Z,45.9
2019-04-22T08:46:40.991Z,45.9
2019-04-22T08:47:42.247Z,45.7
2019-04-22T08:48:47.750Z,46.2
2019-04-22T08:49:50.704Z,46.9
2019-04-22T08:50:47.050Z,46.9
2019-04-22T08:51:42.487Z,46.3
2019-04-22T08:52:55.898Z,46.0
2019-04-22T08:53:57.244Z,45.8
2019-04-22T08:54:50.595Z,45.6
2019-04-22T08:55:59.567Z,45.3
2019-04-22T08:56:58.264Z,44.8
2019-04-22T08:58:09.785Z,44.7
2019-04-22T08:58:57.255Z,44.7
2019-04-22T08:59:59.221Z,44.3
2019-04-22T09:00:57.158Z,44.6
2019-04-22T09:01:59.662Z,44.1
2019-04-22T09:03:02.243Z,43.5
2019-04-22T09:04:11.703Z,43.5
2019-04-22T09:05:10.511Z,43.3
2019-04-22T09:06:04.741Z,44.2
2019-04-22T09:07:12.391Z,43.9
2019-04-22T09:08:07.389Z,43.9
2019-04-22T09:09:09.122Z,43.2
2019-04-22T09:10:13.028Z,42.3
2019-04-22T09:11:18.292Z,42.4
2019-04-22T09:12:19.848Z,42.2
2019-04-22T09:13:14.402Z,42.0
2019-04-22T09:14:15.616Z,42.3
2019-04-22T09:15:16.759Z,43.2
2019-04-22T09:16:20.749Z,42.7
2019-04-22T09:17:17.304Z,42.4
2019-04-22T09:18:21.745Z,42.5
2019-04-22T09:19:16.800Z,42.9
2019-04-22T09:20:21.951Z,42.4
2019-04-22T09:21:27.179Z,42.9
2019-04-22T09:22:22.892Z,42.5
2019-04-22T09:24:23.186Z,42.1
2019-04-22T09:25:29.888Z,42.4
2019-04-22T09:26:30.370Z,41.5
2019-04-22T09:27:37.132Z,40.6
2019-04-22T09:28:33.204Z,41.6
2019-04-22T09:29:38.214Z,41.3
2019-04-22T09:30:34.367Z,40.9
2019-04-22T09:31:28.965Z,40.6
2019-04-22T09:32:32.941Z,40.5
2019-04-22T09:33:32.120Z,40.7
2019-04-22T09:34:38.265Z,41.3
2019-04-22T09:35:37.625Z,42.2
2019-04-22T09:36:42.032Z,41.2
2019-04-22T09:37:42.055Z,41.7
2019-04-22T09:39:41.462Z,40.8
2019-04-22T09:40:39.089Z,39.9
2019-04-22T09:41:46.553Z,39.6
2019-04-22T09:42:43.821Z,39.5
2019-04-22T09:43:48.273Z,39.7
2019-04-22T09:44:47.808Z,39.8
2019-04-22T09:45:47.970Z,40.2
2019-04-22T09:46:47.121Z,39.7
2019-04-22T09:47:55.586Z,40.0
2019-04-22T09:48:51.889Z,39.4
2019-04-22T09:49:55.263Z,39.6
2019-04-22T09:50:57.498Z,39.6
2019-04-22T09:52:01.438Z,39.3
2019-04-22T09:53:03.543Z,39.3
2019-04-22T09:55:07.465Z,39.2
2019-04-22T09:56:08.283Z,39.3
2019-04-22T09:57:07.008Z,39.6
2019-04-22T09:58:02.824Z,39.1
2019-04-22T09:59:03.955Z,39.3
2019-04-22T10:00:10.994Z,39.0
2019-04-22T10:01:12.513Z,38.6
2019-04-22T10:02:21.911Z,39.0
2019-04-22T10:03:16.586Z,39.2
2019-04-22T10:04:07.028Z,38.4
2019-04-22T10:05:15.006Z,38.8
2019-04-22T10:06:22.782Z,39.1
2019-04-22T10:07:16.483Z,39.8
2019-04-22T10:08:24.470Z,39.1
2019-04-22T10:10:29.957Z,39.2
2019-04-22T10:11:31.050Z,39.2
2019-04-22T10:12:25.310Z,39.0
2019-04-22T10:13:32.267Z,39.2
2019-04-22T10:14:24.795Z,38.2
2019-04-22T10:15:26.808Z,37.5
2019-04-22T10:16:35.711Z,38.3
2019-04-22T10:17:26.081Z,37.8
2019-04-22T10:18:33.792Z,37.6
2019-04-22T10:19:31.664Z,37.4
2019-04-22T10:20:35.528Z,36.9
2019-04-22T10:21:40.691Z,37.8
2019-04-22T10:22:39.769Z,36.7
2019-04-22T10:23:41.990Z,37.8
2019-04-22T10:24:37.028Z,37.6
2019-04-22T10:25:35.124Z,37.7
2019-04-22T10:26:39.548Z,37.0
2019-04-22T10:27:45.631Z,37.1
2019-04-22T10:28:44.561Z,37.2
2019-04-22T10:29:51.780Z,38.5
2019-04-22T10:31:46.585Z,38.3
2019-04-22T10:32:46.092Z,37.6
2019-04-22T10:33:38.387Z,37.5
2019-04-22T10:34:32.929Z,38.2
2019-04-22T10:35:25.264Z,38.3
2019-04-22T10:36:23.720Z,37.7
2019-04-22T10:37:25.599Z,36.9
2019-04-22T10:38:26.300Z,36.9
2019-04-22T10:39:36.788Z,36.9
2019-04-22T10:40:27.894Z,37.1
2019-04-22T10:41:28.330Z,37.2
2019-04-22T10:42:29.005Z,37.5
2019-04-22T10:43:29.496Z,37.0
2019-04-22T10:44:29.195Z,37.2
2019-04-22T10:45:30.365Z,37.1
2019-04-22T10:46:30.654Z,38.0
2019-04-22T10:47:32.049Z,37.3
2019-04-22T10:48:32.439Z,37.6
2019-04-22T10:49:34.008Z,37.4
2019-04-22T10:50:36.029Z,36.8
2019-04-22T10:51:35.087Z,36.7
2019-04-22T10:52:37.182Z,37.0
2019-04-22T10:53:37.525Z,35.7
2019-04-22T10:54:37.661Z,35.4
2019-04-22T10:55:40.447Z,35.6
2019-04-22T10:56:39.003Z,35.6
2019-04-22T10:57:39.319Z,34.8
2019-04-22T10:58:40.436Z,34.8
2019-04-22T10:59:40.832Z,35.5
2019-04-22T11:00:41.883Z,34.8
2019-04-22T11:01:42.594Z,35.5
2019-04-22T11:02:43.761Z,35.4
2019-04-22T11:03:45.507Z,35.4
2019-04-22T11:04:45.980Z,35.8
2019-04-22T11:05:46.301Z,36.1
2019-04-22T11:06:53.123Z,35.5
2019-04-22T11:07:53.931Z,36.0
2019-04-22T11:08:52.851Z,34.7
2019-04-22T11:09:58.177Z,34.5
2019-04-22T11:11:05.834Z,34.3
2019-04-22T11:11:59.398Z,33.9
2019-04-22T11:12:51.277Z,34.6
2019-04-22T11:13:51.909Z,35.3
2019-04-22T11:14:51.843Z,36.3
2019-04-22T11:15:52.986Z,35.2
2019-04-22T11:16:53.376Z,34.6
2019-04-22T11:17:53.853Z,35.3
2019-04-22T11:18:55.797Z,34.0
2019-04-22T11:19:55.393Z,33.8
2019-04-22T11:20:55.952Z,34.7
2019-04-22T11:22:06.301Z,35.5
2019-04-22T11:22:58.529Z,35.4
2019-04-22T11:23:58.701Z,33.8
2019-04-22T11:24:59.867Z,34.4
2019-04-22T11:25:59.710Z,34.6
2019-04-22T11:27:01.104Z,33.9
2019-04-22T11:28:01.947Z,34.7
2019-04-22T11:29:01.678Z,34.5
2019-04-22T11:30:03.807Z,34.1
2019-04-22T11:31:03.087Z,34.3
2019-04-22T11:32:04.252Z,34.3
2019-04-22T11:33:04.613Z,33.8
2019-04-22T11:34:06.237Z,33.7
2019-04-22T11:35:06.029Z,33.8
2019-04-22T11:36:07.958Z,34.0
2019-04-22T11:37:07.426Z,34.3
2019-04-22T11:38:08.764Z,33.8
2019-04-22T11:39:10.865Z,34.8
2019-04-22T11:40:18.857Z,35.1
2019-04-22T11:41:10.360Z,34.5
2019-04-22T11:42:12.113Z,33.9
2019-04-22T11:43:12.369Z,34.6
2019-04-22T11:44:12.532Z,33.8
2019-04-22T11:45:13.331Z,33.9
2019-04-22T11:46:13.943Z,34.4
2019-04-22T11:47:15.122Z,33.8
2019-04-22T11:48:15.484Z,34.4
2019-04-22T11:49:16.264Z,34.8
2019-04-22T11:50:17.726Z,34.4
2019-04-22T11:51:18.210Z,34.0
2019-04-22T11:52:19.105Z,33.1
2019-04-22T11:53:18.885Z,33.7
2019-04-22T11:54:20.896Z,35.3
2019-04-22T11:55:20.291Z,36.1
2019-04-22T11:56:20.995Z,35.6
2019-04-22T11:57:23.237Z,35.3
2019-04-22T11:58:22.401Z,34.4
2019-04-22T11:59:24.700Z,34.0
2019-04-22T12:00:25.045Z,33.6
2019-04-22T12:01:26.656Z,34.0
2019-04-22T12:02:27.161Z,34.2
2019-04-22T12:03:28.534Z,34.2
2019-04-22T12:04:27.668Z,34.1
2019-04-22T12:05:28.276Z,34.5
2019-04-22T12:06:28.986Z,34.7
2019-04-22T12:07:32.979Z,34.6
2019-04-22T12:08:31.179Z,34.8
2019-04-22T12:09:31.084Z,33.7
2019-04-22T12:10:38.821Z,33.9
2019-04-22T12:11:32.506Z,33.7
2019-04-22T12:12:34.547Z,33.0
2019-04-22T12:13:33.946Z,32.4
2019-04-22T12:14:36.129Z,33.0
2019-04-22T12:15:37.315Z,33.0
2019-04-22T12:16:37.179Z,32.6
2019-04-22T12:17:38.130Z,32.6
2019-04-22T12:18:39.619Z,32.0
2019-04-22T12:19:40.131Z,32.9
2019-04-22T12:20:41.297Z,33.1
2019-04-22T12:21:41.305Z,33.8
2019-04-22T12:22:41.213Z,34.4
2019-04-22T12:23:43.361Z,34.1
2019-04-22T12:24:42.632Z,34.2
2019-04-22T12:25:51.647Z,33.8
2019-04-22T12:26:44.241Z,33.6
2019-04-22T12:27:45.307Z,33.3
2019-04-22T12:28:46.728Z,33.8
2019-04-22T12:29:47.054Z,33.9
2019-04-22T12:30:47.933Z,32.7
2019-04-22T12:31:47.536Z,33.5
2019-04-22T12:32:48.590Z,33.1
2019-04-22T12:33:49.613Z,34.4
2019-04-22T12:34:51.033Z,34.6
2019-04-22T12:35:52.608Z,34.7
2019-04-22T12:36:52.063Z,34.7
2019-04-22T12:37:57.544Z,34.8
2019-04-22T12:38:53.761Z,34.3
2019-04-22T12:39:56.461Z,34.7
2019-04-22T12:41:00.247Z,34.6
2019-04-22T12:41:56.183Z,34.2
2019-04-22T12:42:57.637Z,34.3
2019-04-22T12:43:56.975Z,33.8
2019-04-22T12:44:58.386Z,33.1
2019-04-22T12:45:58.375Z,34.2
2019-04-22T12:47:00.715Z,33.4
2019-04-22T12:48:00.129Z,33.5
2019-04-22T12:49:00.473Z,34.2
2019-04-22T12:50:08.872Z,34.3
2019-04-22T12:51:02.966Z,34.6
2019-04-22T12:52:03.086Z,34.0
2019-04-22T12:53:08.851Z,33.3
2019-04-22T12:54:04.082Z,33.5
2019-04-22T12:55:05.980Z,32.8
2019-04-22T12:56:06.934Z,33.8
2019-04-22T12:57:06.202Z,33.8
2019-04-22T12:58:07.607Z,33.6
2019-04-22T12:59:07.718Z,33.8
2019-04-22T13:00:08.308Z,33.9
2019-04-22T13:01:09.015Z,33.1
2019-04-22T13:02:11.110Z,34.0
2019-04-22T13:03:11.062Z,33.9
2019-04-22T13:04:15.311Z,34.3
2019-04-22T13:05:12.427Z,34.3
2019-04-22T13:06:14.061Z,34.1
2019-04-22T13:07:13.566Z,33.8
2019-04-22T13:08:13.984Z,34.8
2019-04-22T13:09:17.436Z,33.5
2019-04-22T13:10:15.650Z,34.0
2019-04-22T13:11:19.676Z,34.4
2019-04-22T13:12:17.200Z,34.6
2019-04-22T13:13:18.784Z,33.9
2019-04-22T13:14:19.195Z,34.3
2019-04-22T13:15:19.992Z,33.7
2019-04-22T13:16:20.712Z,33.2
2019-04-22T13:17:20.885Z,33.4
2019-04-22T13:18:29.405Z,32.9
2019-04-22T13:19:23.459Z,31.8
2019-04-22T13:20:22.345Z,32.3
2019-04-22T13:21:23.047Z,33.0
2019-04-22T13:22:24.960Z,32.8
2019-04-22T13:23:25.549Z,33.0
2019-04-22T13:24:25.952Z,33.1
2019-04-22T13:25:28.275Z,33.7
2019-04-22T13:26:27.150Z,32.8
2019-04-22T13:27:28.777Z,32.5
2019-04-22T13:28:29.185Z,33.1
2019-04-22T13:29:28.643Z,33.7
2019-04-22T13:30:30.491Z,33.2
2019-04-22T13:31:30.872Z,33.9
2019-04-22T13:32:31.354Z,33.4
2019-04-22T13:33:32.742Z,33.3
2019-04-22T13:34:38.630Z,33.1
2019-04-22T13:35:33.898Z,33.2
2019-04-22T13:36:34.620Z,33.2
2019-04-22T13:37:34.997Z,33.7
2019-04-22T13:38:35.355Z,33.1
2019-04-22T13:39:36.720Z,33.8
2019-04-22T13:40:37.079Z,33.0
2019-04-22T13:41:44.044Z,33.1
2019-04-22T13:42:37.817Z,32.3
2019-04-22T13:43:38.801Z,33.0
2019-04-22T13:44:39.712Z,33.1
2019-04-22T13:45:40.773Z,33.8
2019-04-22T13:46:59.112Z,32.6
2019-04-22T13:48:06.338Z,33.0
2019-04-22T13:49:08.720Z,33.3
2019-04-22T13:50:21.039Z,33.9
2019-04-22T13:51:21.932Z,34.1
2019-04-22T13:52:28.390Z,34.2
2019-04-22T13:53:30.095Z,33.7
2019-04-22T13:54:42.285Z,34.0
2019-04-22T13:55:17.998Z,33.0
2019-04-22T13:56:25.260Z,33.0
2019-04-22T13:57:12.104Z,33.7
2019-04-22T13:58:05.882Z,32.6
2019-04-22T13:59:04.594Z,33.7
2019-04-22T13:59:58.235Z,33.7
2019-04-22T14:00:56.433Z,34.3
2019-04-22T14:01:56.482Z,33.8
2019-04-22T14:02:56.595Z,33.3
2019-04-22T14:03:58.730Z,33.5
2019-04-22T14:04:59.136Z,33.2
2019-04-22T14:05:58.709Z,33.1
2019-04-22T14:07:00.750Z,32.8
2019-04-22T14:08:02.550Z,33.0
2019-04-22T14:09:01.177Z,32.9
2019-04-22T14:10:02.633Z,33.2
2019-04-22T14:11:12.488Z,33.7
2019-04-22T14:12:05.676Z,33.9
2019-04-22T14:13:03.872Z,34.3
2019-04-22T14:14:05.094Z,34.4
2019-04-22T14:15:06.289Z,35.4
2019-04-22T14:16:06.800Z,34.2
2019-04-22T14:17:07.217Z,34.8
2019-04-22T14:18:07.337Z,35.4
2019-04-22T14:19:07.952Z,34.9
2019-04-22T14:20:09.025Z,34.7
2019-04-22T14:21:09.279Z,34.2
2019-04-22T14:22:09.997Z,34.6
2019-04-22T14:23:12.264Z,34.0
2019-04-22T14:24:13.803Z,34.3
2019-04-22T14:25:12.662Z,35.0
2019-04-22T14:26:13.384Z,34.6
2019-04-22T14:27:27.095Z,34.8
2019-04-22T14:28:17.585Z,35.7
2019-04-22T14:29:15.714Z,34.2
2019-04-22T14:30:16.806Z,34.2
2019-04-22T14:31:18.066Z,34.7
2019-04-22T14:32:21.804Z,34.7
2019-04-22T14:33:18.309Z,33.6
2019-04-22T14:34:19.330Z,33.7
2019-04-22T14:35:20.798Z,34.2
2019-04-22T14:36:21.376Z,34.9
2019-04-22T14:37:22.212Z,34.6
2019-04-22T14:38:21.953Z,34.1
2019-04-22T14:39:22.297Z,34.2
2019-04-22T14:40:24.714Z,34.0
2019-04-22T14:41:43.515Z,34.4
2019-04-22T14:42:44.078Z,34.5
2019-04-22T14:43:57.512Z,35.8
2019-04-22T14:46:04.037Z,34.8
2019-04-22T14:47:03.995Z,35.2
2019-04-22T14:48:02.728Z,35.1
2019-04-22T14:49:10.688Z,35.3
2019-04-22T14:49:52.864Z,35.0
2019-04-22T14:50:51.750Z,36.1
2019-04-22T14:52:02.055Z,36.5
2019-04-22T14:53:00.678Z,36.1
2019-04-22T14:53:55.488Z,35.9
2019-04-22T14:54:49.254Z,35.9
2019-04-22T14:55:38.557Z,36.4